sensor_id;sensor_type;location;lat;lon;timestamp;pressure;altitude;pressure_sealevel;temperature;humidity
11053;BME280;55230;42.602;23.470;2023-06-05T00:02:21;93988.69;;;14.56;100.00
11053;BME280;55230;42.602;23.470;2023-06-05T00:04:47;93986.69;;;14.57;100.00
11053;BME280;55230;42.602;23.470;2023-06-05T00:07:14;93990.94;;;14.58;100.00
11053;BME280;55230;42.602;23.470;2023-06-05T00:09:40;93988.09;;;14.52;100.00
11053;BME280;55230;42.602;23.470;2023-06-05T00:12:08;93983.94;;;14.33;100.00
11053;BME280;55230;42.602;23.470;2023-06-05T00:14:35;93996.88;;;14.38;100.00
11053;BME280;55230;42.602;23.470;2023-06-05T00:17:02;93998.38;;;14.39;100.00
11053;BME280;55230;42.602;23.470;2023-06-05T00:19:28;93990.88;;;14.34;100.00
11053;BME280;55230;42.602;23.470;2023-06-05T00:21:55;93995.06;;;14.44;100.00
11053;BME280;55230;42.602;23.470;2023-06-05T00:24:22;94001.38;;;14.41;100.00
11053;BME280;55230;42.602;23.470;2023-06-05T00:26:49;93994.44;;;14.49;100.00
11053;BME280;55230;42.602;23.470;2023-06-05T00:29:17;94000.44;;;14.53;100.00
11053;BME280;55230;42.602;23.470;2023-06-05T00:31:43;94010.66;;;14.58;100.00
11053;BME280;55230;42.602;23.470;2023-06-05T00:34:11;94007.78;;;14.62;100.00
11053;BME280;55230;42.602;23.470;2023-06-05T00:36:38;94010.38;;;14.56;100.00
11053;BME280;55230;42.602;23.470;2023-06-05T00:39:05;94009.75;;;14.61;100.00
11053;BME280;55230;42.602;23.470;2023-06-05T00:41:32;94004.91;;;14.65;100.00
11053;BME280;55230;42.602;23.470;2023-06-05T00:43:58;93998.41;;;14.72;100.00
11053;BME280;55230;42.602;23.470;2023-06-05T00:46:26;93997.66;;;14.71;100.00
11053;BME280;55230;42.602;23.470;2023-06-05T00:48:53;94000.66;;;14.73;100.00
11053;BME280;55230;42.602;23.470;2023-06-05T00:51:19;94000.06;;;14.69;100.00
11053;BME280;55230;42.602;23.470;2023-06-05T00:53:46;93994.03;;;14.65;100.00
11053;BME280;55230;42.602;23.470;2023-06-05T00:56:13;93993.34;;;14.56;100.00
11053;BME280;55230;42.602;23.470;2023-06-05T00:58:42;93989.56;;;14.53;100.00
11053;BME280;55230;42.602;23.470;2023-06-05T01:01:09;93990.03;;;14.52;100.00
11053;BME280;55230;42.602;23.470;2023-06-05T01:03:38;93976.94;;;14.50;100.00
11053;BME280;55230;42.602;23.470;2023-06-05T01:06:04;93977.28;;;14.43;100.00
11053;BME280;55230;42.602;23.470;2023-06-05T01:08:31;93973.53;;;14.41;100.00
11053;BME280;55230;42.602;23.470;2023-06-05T01:11:03;93974.03;;;14.30;100.00
11053;BME280;55230;42.602;23.470;2023-06-05T01:13:31;93973.72;;;14.19;100.00
11053;BME280;55230;42.602;23.470;2023-06-05T01:16:00;93968.63;;;14.12;100.00
11053;BME280;55230;42.602;23.470;2023-06-05T01:18:30;93968.38;;;13.92;100.00
11053;BME280;55230;42.602;23.470;2023-06-05T01:21:01;93956.47;;;13.99;100.00
11053;BME280;55230;42.602;23.470;2023-06-05T01:23:30;93964.28;;;14.06;100.00
11053;BME280;55230;42.602;23.470;2023-06-05T01:25:56;93955.38;;;14.05;100.00
11053;BME280;55230;42.602;23.470;2023-06-05T01:28:27;93959.28;;;14.13;100.00
11053;BME280;55230;42.602;23.470;2023-06-05T01:30:57;93950.81;;;14.20;100.00
11053;BME280;55230;42.602;23.470;2023-06-05T01:33:29;93964.97;;;14.33;100.00
11053;BME280;55230;42.602;23.470;2023-06-05T01:35:59;93951.06;;;14.40;100.00
11053;BME280;55230;42.602;23.470;2023-06-05T01:38:31;93951.66;;;14.44;100.00
11053;BME280;55230;42.602;23.470;2023-06-05T01:40:59;93957.06;;;14.44;100.00
11053;BME280;55230;42.602;23.470;2023-06-05T01:43:27;93952.97;;;14.49;100.00
11053;BME280;55230;42.602;23.470;2023-06-05T01:45:53;93947.97;;;14.56;100.00
11053;BME280;55230;42.602;23.470;2023-06-05T01:48:24;93954.44;;;14.59;100.00
11053;BME280;55230;42.602;23.470;2023-06-05T01:50:54;93956.03;;;14.65;100.00
11053;BME280;55230;42.602;23.470;2023-06-05T01:53:21;93950.63;;;14.65;100.00
11053;BME280;55230;42.602;23.470;2023-06-05T01:55:49;93943.69;;;14.64;100.00
11053;BME280;55230;42.602;23.470;2023-06-05T01:58:17;93945.19;;;14.65;100.00
11053;BME280;55230;42.602;23.470;2023-06-05T02:00:44;93945.47;;;14.67;100.00
11053;BME280;55230;42.602;23.470;2023-06-05T02:03:11;93950.78;;;14.62;100.00
11053;BME280;55230;42.602;23.470;2023-06-05T02:05:41;93947.44;;;14.67;100.00
11053;BME280;55230;42.602;23.470;2023-06-05T02:08:07;93945.09;;;14.60;100.00
11053;BME280;55230;42.602;23.470;2023-06-05T02:10:35;93950.38;;;14.54;100.00
11053;BME280;55230;42.602;23.470;2023-06-05T02:13:03;93949.22;;;14.46;100.00
11053;BME280;55230;42.602;23.470;2023-06-05T02:15:30;93942.63;;;14.38;100.00
11053;BME280;55230;42.602;23.470;2023-06-05T02:17:59;93953.31;;;14.42;100.00
11053;BME280;55230;42.602;23.470;2023-06-05T02:20:28;93942.00;;;14.43;100.00
11053;BME280;55230;42.602;23.470;2023-06-05T02:22:54;93933.97;;;14.49;100.00
11053;BME280;55230;42.602;23.470;2023-06-05T02:25:22;93933.06;;;14.52;100.00
11053;BME280;55230;42.602;23.470;2023-06-05T02:27:51;93929.13;;;14.53;100.00
11053;BME280;55230;42.602;23.470;2023-06-05T02:30:19;93928.09;;;14.50;100.00
11053;BME280;55230;42.602;23.470;2023-06-05T02:32:45;93936.34;;;14.56;100.00
11053;BME280;55230;42.602;23.470;2023-06-05T02:35:12;93936.19;;;14.59;100.00
11053;BME280;55230;42.602;23.470;2023-06-05T02:37:39;93937.03;;;14.65;100.00
11053;BME280;55230;42.602;23.470;2023-06-05T02:40:08;93940.03;;;14.67;100.00
11053;BME280;55230;42.602;23.470;2023-06-05T02:42:35;93940.34;;;14.69;100.00
11053;BME280;55230;42.602;23.470;2023-06-05T02:45:02;93948.47;;;14.69;100.00
11053;BME280;55230;42.602;23.470;2023-06-05T02:47:30;93948.94;;;14.68;100.00
11053;BME280;55230;42.602;23.470;2023-06-05T02:49:56;93951.88;;;14.55;100.00
11053;BME280;55230;42.602;23.470;2023-06-05T02:52:23;93949.88;;;14.65;100.00
11053;BME280;55230;42.602;23.470;2023-06-05T02:54:50;93950.53;;;14.60;100.00
11053;BME280;55230;42.602;23.470;2023-06-05T02:57:16;93957.84;;;14.36;100.00
11053;BME280;55230;42.602;23.470;2023-06-05T02:59:43;93958.03;;;14.32;100.00
11053;BME280;55230;42.602;23.470;2023-06-05T03:02:10;93955.34;;;14.14;100.00
11053;BME280;55230;42.602;23.470;2023-06-05T03:04:38;93950.25;;;14.07;100.00
11053;BME280;55230;42.602;23.470;2023-06-05T03:07:05;93947.00;;;13.94;100.00
11053;BME280;55230;42.602;23.470;2023-06-05T03:09:33;93951.31;;;14.10;100.00
11053;BME280;55230;42.602;23.470;2023-06-05T03:12:00;93952.94;;;14.16;100.00
11053;BME280;55230;42.602;23.470;2023-06-05T03:14:27;93951.38;;;14.33;100.00
11053;BME280;55230;42.602;23.470;2023-06-05T03:16:53;93947.25;;;14.47;100.00
11053;BME280;55230;42.602;23.470;2023-06-05T03:19:20;93947.44;;;14.67;100.00
11053;BME280;55230;42.602;23.470;2023-06-05T03:21:48;93956.72;;;14.84;100.00
11053;BME280;55230;42.602;23.470;2023-06-05T03:24:15;93954.16;;;14.80;100.00
11053;BME280;55230;42.602;23.470;2023-06-05T03:26:41;93959.84;;;14.82;100.00
11053;BME280;55230;42.602;23.470;2023-06-05T03:29:09;93961.31;;;14.92;100.00
11053;BME280;55230;42.602;23.470;2023-06-05T03:31:36;93961.03;;;14.90;100.00
11053;BME280;55230;42.602;23.470;2023-06-05T03:34:02;93957.25;;;14.64;100.00
11053;BME280;55230;42.602;23.470;2023-06-05T03:36:29;93961.41;;;14.74;100.00
11053;BME280;55230;42.602;23.470;2023-06-05T03:38:59;93964.25;;;15.03;100.00
11053;BME280;55230;42.602;23.470;2023-06-05T03:41:25;93965.78;;;15.04;100.00
11053;BME280;55230;42.602;23.470;2023-06-05T03:43:52;93973.78;;;15.23;100.00
11053;BME280;55230;42.602;23.470;2023-06-05T03:46:18;93979.25;;;15.90;100.00
11053;BME280;55230;42.602;23.470;2023-06-05T03:48:46;93984.22;;;15.91;100.00
11053;BME280;55230;42.602;23.470;2023-06-05T03:51:13;93993.13;;;15.92;100.00
11053;BME280;55230;42.602;23.470;2023-06-05T03:53:43;93987.69;;;16.21;100.00
11053;BME280;55230;42.602;23.470;2023-06-05T03:56:11;93994.63;;;15.93;100.00
11053;BME280;55230;42.602;23.470;2023-06-05T03:58:51;93997.09;;;16.20;100.00
11053;BME280;55230;42.602;23.470;2023-06-05T04:01:18;93992.56;;;15.88;100.00
11053;BME280;55230;42.602;23.470;2023-06-05T04:03:44;93995.41;;;15.41;100.00
11053;BME280;55230;42.602;23.470;2023-06-05T04:06:11;93979.44;;;15.34;100.00
11053;BME280;55230;42.602;23.470;2023-06-05T04:08:37;93981.09;;;15.55;100.00
11053;BME280;55230;42.602;23.470;2023-06-05T04:11:04;93977.91;;;15.56;100.00
11053;BME280;55230;42.602;23.470;2023-06-05T04:13:32;93985.38;;;15.47;100.00
11053;BME280;55230;42.602;23.470;2023-06-05T04:15:58;93984.41;;;15.35;100.00
11053;BME280;55230;42.602;23.470;2023-06-05T04:18:27;93988.28;;;15.20;100.00
11053;BME280;55230;42.602;23.470;2023-06-05T04:20:53;93982.69;;;15.38;100.00
11053;BME280;55230;42.602;23.470;2023-06-05T04:23:20;93986.38;;;15.73;100.00
11053;BME280;55230;42.602;23.470;2023-06-05T04:25:47;93993.41;;;15.94;100.00
11053;BME280;55230;42.602;23.470;2023-06-05T04:28:14;93992.84;;;15.90;100.00
11053;BME280;55230;42.602;23.470;2023-06-05T04:30:43;93989.66;;;15.77;100.00
11053;BME280;55230;42.602;23.470;2023-06-05T04:33:10;93994.44;;;16.11;100.00
11053;BME280;55230;42.602;23.470;2023-06-05T04:35:37;93995.00;;;15.86;100.00
11053;BME280;55230;42.602;23.470;2023-06-05T04:38:04;93989.19;;;15.78;100.00
11053;BME280;55230;42.602;23.470;2023-06-05T04:40:30;93993.28;;;15.74;100.00
11053;BME280;55230;42.602;23.470;2023-06-05T04:42:57;94000.34;;;16.24;100.00
11053;BME280;55230;42.602;23.470;2023-06-05T04:45:24;93998.75;;;16.47;100.00
11053;BME280;55230;42.602;23.470;2023-06-05T04:47:52;94006.81;;;16.70;100.00
11053;BME280;55230;42.602;23.470;2023-06-05T04:50:22;94009.31;;;17.08;100.00
11053;BME280;55230;42.602;23.470;2023-06-05T04:52:50;94012.19;;;17.19;100.00
11053;BME280;55230;42.602;23.470;2023-06-05T04:55:17;94012.72;;;17.44;100.00
11053;BME280;55230;42.602;23.470;2023-06-05T04:57:44;94005.09;;;17.07;100.00
11053;BME280;55230;42.602;23.470;2023-06-05T05:00:12;94006.94;;;17.36;100.00
11053;BME280;55230;42.602;23.470;2023-06-05T05:02:38;94006.84;;;17.10;100.00
11053;BME280;55230;42.602;23.470;2023-06-05T05:05:07;94015.56;;;16.94;100.00
11053;BME280;55230;42.602;23.470;2023-06-05T05:07:38;94008.28;;;16.71;100.00
11053;BME280;55230;42.602;23.470;2023-06-05T05:10:05;94009.44;;;17.40;100.00
11053;BME280;55230;42.602;23.470;2023-06-05T05:12:33;94011.25;;;18.65;100.00
11053;BME280;55230;42.602;23.470;2023-06-05T05:15:00;94009.69;;;18.59;100.00
11053;BME280;55230;42.602;23.470;2023-06-05T05:17:26;94006.34;;;18.18;100.00
11053;BME280;55230;42.602;23.470;2023-06-05T05:19:53;94008.50;;;18.34;100.00
11053;BME280;55230;42.602;23.470;2023-06-05T05:22:21;94013.97;;;18.65;100.00
11053;BME280;55230;42.602;23.470;2023-06-05T05:24:48;94004.91;;;18.85;100.00
11053;BME280;55230;42.602;23.470;2023-06-05T05:27:14;94007.47;;;18.94;100.00
11053;BME280;55230;42.602;23.470;2023-06-05T05:29:41;94003.97;;;18.93;100.00
11053;BME280;55230;42.602;23.470;2023-06-05T05:32:07;94005.22;;;18.92;100.00
11053;BME280;55230;42.602;23.470;2023-06-05T05:34:34;94009.66;;;18.84;100.00
11053;BME280;55230;42.602;23.470;2023-06-05T05:37:00;94008.06;;;18.72;100.00
11053;BME280;55230;42.602;23.470;2023-06-05T05:39:30;93999.03;;;18.61;100.00
11053;BME280;55230;42.602;23.470;2023-06-05T05:41:56;94007.97;;;18.61;100.00
11053;BME280;55230;42.602;23.470;2023-06-05T05:44:24;94005.28;;;18.67;100.00
11053;BME280;55230;42.602;23.470;2023-06-05T05:46:51;94010.94;;;19.36;100.00
11053;BME280;55230;42.602;23.470;2023-06-05T05:49:17;94015.91;;;19.32;100.00
11053;BME280;55230;42.602;23.470;2023-06-05T05:51:44;94005.47;;;18.94;100.00
11053;BME280;55230;42.602;23.470;2023-06-05T05:54:10;94013.16;;;18.90;100.00
11053;BME280;55230;42.602;23.470;2023-06-05T05:56:38;94006.06;;;18.41;100.00
11053;BME280;55230;42.602;23.470;2023-06-05T05:59:05;93990.09;;;18.60;100.00
11053;BME280;55230;42.602;23.470;2023-06-05T06:01:32;93995.16;;;18.41;100.00
11053;BME280;55230;42.602;23.470;2023-06-05T06:03:58;93996.44;;;18.83;100.00
11053;BME280;55230;42.602;23.470;2023-06-05T06:06:25;93998.66;;;19.15;99.82
11053;BME280;55230;42.602;23.470;2023-06-05T06:08:51;94007.72;;;19.38;96.18
11053;BME280;55230;42.602;23.470;2023-06-05T06:11:18;94011.56;;;19.63;92.96
11053;BME280;55230;42.602;23.470;2023-06-05T06:13:46;94011.53;;;19.57;91.96
11053;BME280;55230;42.602;23.470;2023-06-05T06:16:14;94012.25;;;19.52;91.65
11053;BME280;55230;42.602;23.470;2023-06-05T06:18:40;94010.78;;;19.51;92.51
11053;BME280;55230;42.602;23.470;2023-06-05T06:21:06;94006.16;;;19.85;93.27
11053;BME280;55230;42.602;23.470;2023-06-05T06:23:33;94007.22;;;20.15;91.13
11053;BME280;55230;42.602;23.470;2023-06-05T06:25:59;94023.97;;;20.55;89.05
11053;BME280;55230;42.602;23.470;2023-06-05T06:28:26;94012.75;;;20.81;86.72
11053;BME280;55230;42.602;23.470;2023-06-05T06:30:54;94010.97;;;21.11;85.33
11053;BME280;55230;42.602;23.470;2023-06-05T06:33:21;94011.19;;;21.35;84.40
11053;BME280;55230;42.602;23.470;2023-06-05T06:35:48;94011.09;;;21.57;80.98
11053;BME280;55230;42.602;23.470;2023-06-05T06:38:14;94007.00;;;21.92;80.53
11053;BME280;55230;42.602;23.470;2023-06-05T06:40:41;94005.50;;;21.91;77.22
11053;BME280;55230;42.602;23.470;2023-06-05T06:43:08;93997.25;;;21.91;76.01
11053;BME280;55230;42.602;23.470;2023-06-05T06:45:34;94001.25;;;21.90;75.41
11053;BME280;55230;42.602;23.470;2023-06-05T06:48:02;93990.69;;;22.05;76.51
11053;BME280;55230;42.602;23.470;2023-06-05T06:50:29;93997.28;;;22.26;76.09
11053;BME280;55230;42.602;23.470;2023-06-05T06:52:55;93995.53;;;22.28;73.89
11053;BME280;55230;42.602;23.470;2023-06-05T06:55:22;93993.75;;;22.31;72.39
11053;BME280;55230;42.602;23.470;2023-06-05T06:57:49;93996.28;;;22.29;72.49
11053;BME280;55230;42.602;23.470;2023-06-05T07:00:15;93993.28;;;22.27;72.88
11053;BME280;55230;42.602;23.470;2023-06-05T07:02:42;93988.06;;;22.23;72.25
11053;BME280;55230;42.602;23.470;2023-06-05T07:05:10;93990.78;;;22.29;74.31
11053;BME280;55230;42.602;23.470;2023-06-05T07:07:36;94004.00;;;22.30;72.11
11053;BME280;55230;42.602;23.470;2023-06-05T07:10:03;93996.50;;;22.31;72.77
11053;BME280;55230;42.602;23.470;2023-06-05T07:12:29;93996.41;;;22.42;73.89
11053;BME280;55230;42.602;23.470;2023-06-05T07:14:56;93985.63;;;22.55;72.03
11053;BME280;55230;42.602;23.470;2023-06-05T07:17:22;93994.00;;;22.68;71.82
11053;BME280;55230;42.602;23.470;2023-06-05T07:19:49;93995.97;;;22.97;71.11
11053;BME280;55230;42.602;23.470;2023-06-05T07:22:17;93994.63;;;23.09;69.00
11053;BME280;55230;42.602;23.470;2023-06-05T07:24:43;93990.94;;;23.01;68.24
11053;BME280;55230;42.602;23.470;2023-06-05T07:27:14;93992.09;;;22.87;66.91
11053;BME280;55230;42.602;23.470;2023-06-05T07:29:41;93987.97;;;22.99;69.50
11053;BME280;55230;42.602;23.470;2023-06-05T07:32:07;93983.97;;;23.00;70.19
11053;BME280;55230;42.602;23.470;2023-06-05T07:34:34;93984.38;;;23.10;68.22
11053;BME280;55230;42.602;23.470;2023-06-05T07:37:00;93989.75;;;23.21;66.72
11053;BME280;55230;42.602;23.470;2023-06-05T07:39:29;93997.31;;;23.15;65.67
11053;BME280;55230;42.602;23.470;2023-06-05T07:41:55;93993.13;;;23.08;67.61
11053;BME280;55230;42.602;23.470;2023-06-05T07:44:22;93993.84;;;23.14;69.23
11053;BME280;55230;42.602;23.470;2023-06-05T07:46:49;93992.38;;;23.56;66.27
11053;BME280;55230;42.602;23.470;2023-06-05T07:49:15;93992.22;;;23.72;66.28
11053;BME280;55230;42.602;23.470;2023-06-05T07:51:42;93996.97;;;23.90;62.71
11053;BME280;55230;42.602;23.470;2023-06-05T07:54:09;93998.50;;;24.10;64.04
11053;BME280;55230;42.602;23.470;2023-06-05T07:56:38;93996.78;;;24.26;57.86
11053;BME280;55230;42.602;23.470;2023-06-05T07:59:06;93996.28;;;24.40;59.40
11053;BME280;55230;42.602;23.470;2023-06-05T08:01:34;93997.97;;;24.62;58.12
11053;BME280;55230;42.602;23.470;2023-06-05T08:04:01;93984.41;;;24.64;57.63
11053;BME280;55230;42.602;23.470;2023-06-05T08:06:28;93987.59;;;24.86;56.15
11053;BME280;55230;42.602;23.470;2023-06-05T08:08:54;93993.47;;;25.09;54.66
11053;BME280;55230;42.602;23.470;2023-06-05T08:11:21;93987.72;;;25.07;54.35
11053;BME280;55230;42.602;23.470;2023-06-05T08:13:49;93990.50;;;25.07;54.70
11053;BME280;55230;42.602;23.470;2023-06-05T08:16:15;93980.13;;;25.52;55.51
11053;BME280;55230;42.602;23.470;2023-06-05T08:18:42;93997.53;;;25.60;55.98
11053;BME280;55230;42.602;23.470;2023-06-05T08:21:09;93993.19;;;25.65;54.04
11053;BME280;55230;42.602;23.470;2023-06-05T08:23:36;93995.09;;;25.83;52.44
11053;BME280;55230;42.602;23.470;2023-06-05T08:26:02;93988.69;;;25.88;52.45
11053;BME280;55230;42.602;23.470;2023-06-05T08:28:35;93981.81;;;25.81;52.21
11053;BME280;55230;42.602;23.470;2023-06-05T08:31:03;93991.13;;;25.91;52.55
11053;BME280;55230;42.602;23.470;2023-06-05T08:33:31;93985.81;;;25.93;51.05
11053;BME280;55230;42.602;23.470;2023-06-05T08:35:57;93997.84;;;25.83;51.42
11053;BME280;55230;42.602;23.470;2023-06-05T08:38:24;93996.03;;;25.98;53.22
11053;BME280;55230;42.602;23.470;2023-06-05T08:40:51;93998.22;;;26.26;49.67
11053;BME280;55230;42.602;23.470;2023-06-05T08:43:22;94001.47;;;26.38;49.96
11053;BME280;55230;42.602;23.470;2023-06-05T08:45:51;93996.00;;;26.11;52.89
11053;BME280;55230;42.602;23.470;2023-06-05T08:48:19;94010.47;;;26.17;52.40
11053;BME280;55230;42.602;23.470;2023-06-05T08:50:46;93994.97;;;25.88;52.02
11053;BME280;55230;42.602;23.470;2023-06-05T08:53:14;94004.75;;;25.89;52.26
11053;BME280;55230;42.602;23.470;2023-06-05T08:55:42;94000.59;;;26.09;52.56
11053;BME280;55230;42.602;23.470;2023-06-05T08:58:09;93998.53;;;26.56;50.54
11053;BME280;55230;42.602;23.470;2023-06-05T09:00:38;94001.50;;;26.58;48.15
11053;BME280;55230;42.602;23.470;2023-06-05T09:03:05;93999.28;;;26.57;50.27
11053;BME280;55230;42.602;23.470;2023-06-05T09:05:33;94011.81;;;26.71;47.99
11053;BME280;55230;42.602;23.470;2023-06-05T09:07:59;94000.88;;;26.18;48.87
11053;BME280;55230;42.602;23.470;2023-06-05T09:10:26;94012.59;;;25.98;49.77
11053;BME280;55230;42.602;23.470;2023-06-05T09:12:54;93996.91;;;25.41;51.11
11053;BME280;55230;42.602;23.470;2023-06-05T09:15:21;94002.44;;;25.41;51.76
11053;BME280;55230;42.602;23.470;2023-06-05T09:17:48;94006.09;;;25.31;51.31
11053;BME280;55230;42.602;23.470;2023-06-05T09:20:22;94003.22;;;24.97;52.67
11053;BME280;55230;42.602;23.470;2023-06-05T09:22:50;94004.44;;;24.83;53.12
11053;BME280;55230;42.602;23.470;2023-06-05T09:25:17;94005.00;;;24.94;53.41
11053;BME280;55230;42.602;23.470;2023-06-05T09:27:43;94016.13;;;24.39;53.52
11053;BME280;55230;42.602;23.470;2023-06-05T09:30:11;94009.88;;;24.38;54.45
11053;BME280;55230;42.602;23.470;2023-06-05T09:32:37;94007.47;;;24.48;54.98
11053;BME280;55230;42.602;23.470;2023-06-05T09:35:04;94004.63;;;23.97;56.57
11053;BME280;55230;42.602;23.470;2023-06-05T09:37:35;94009.88;;;24.20;56.57
11053;BME280;55230;42.602;23.470;2023-06-05T09:40:03;94009.91;;;23.95;58.21
11053;BME280;55230;42.602;23.470;2023-06-05T09:42:31;94008.75;;;24.10;57.46
11053;BME280;55230;42.602;23.470;2023-06-05T09:44:58;94013.03;;;24.11;55.98
11053;BME280;55230;42.602;23.470;2023-06-05T09:47:25;94008.44;;;23.94;57.38
11053;BME280;55230;42.602;23.470;2023-06-05T09:49:51;94008.38;;;23.81;57.94
11053;BME280;55230;42.602;23.470;2023-06-05T09:52:18;94012.19;;;23.54;58.88
11053;BME280;55230;42.602;23.470;2023-06-05T09:54:45;94009.38;;;23.78;59.11
11053;BME280;55230;42.602;23.470;2023-06-05T09:57:14;94009.72;;;23.93;58.76
11053;BME280;55230;42.602;23.470;2023-06-05T09:59:44;94000.28;;;23.65;60.05
11053;BME280;55230;42.602;23.470;2023-06-05T10:02:11;94006.50;;;23.71;59.75
11053;BME280;55230;42.602;23.470;2023-06-05T10:04:42;93997.19;;;23.74;60.11
11053;BME280;55230;42.602;23.470;2023-06-05T10:07:11;93996.91;;;23.77;57.75
11053;BME280;55230;42.602;23.470;2023-06-05T10:09:38;94001.59;;;23.82;59.19
11053;BME280;55230;42.602;23.470;2023-06-05T10:12:06;93992.72;;;23.71;56.42
11053;BME280;55230;42.602;23.470;2023-06-05T10:14:35;93987.50;;;23.67;59.60
11053;BME280;55230;42.602;23.470;2023-06-05T10:17:01;93992.84;;;23.60;58.86
11053;BME280;55230;42.602;23.470;2023-06-05T10:19:29;93989.81;;;23.82;60.43
11053;BME280;55230;42.602;23.470;2023-06-05T10:21:56;93984.34;;;23.39;58.06
11053;BME280;55230;42.602;23.470;2023-06-05T10:24:23;93985.06;;;23.16;62.27
11053;BME280;55230;42.602;23.470;2023-06-05T10:27:08;93987.41;;;23.54;57.66
11053;BME280;55230;42.602;23.470;2023-06-05T10:29:43;93987.81;;;23.82;58.13
11053;BME280;55230;42.602;23.470;2023-06-05T10:32:12;93985.09;;;23.40;58.36
11053;BME280;55230;42.602;23.470;2023-06-05T10:34:44;93973.22;;;23.87;57.26
11053;BME280;55230;42.602;23.470;2023-06-05T10:37:18;93977.69;;;24.28;57.86
11053;BME280;55230;42.602;23.470;2023-06-05T10:39:54;93978.56;;;24.36;57.25
11053;BME280;55230;42.602;23.470;2023-06-05T10:42:24;93976.34;;;24.66;54.98
11053;BME280;55230;42.602;23.470;2023-06-05T10:44:52;93971.25;;;24.57;55.57
11053;BME280;55230;42.602;23.470;2023-06-05T10:50:19;93977.09;;;24.98;54.79
11053;BME280;55230;42.602;23.470;2023-06-05T10:52:48;93977.66;;;25.23;54.42
11053;BME280;55230;42.602;23.470;2023-06-05T10:55:15;93976.28;;;25.42;53.30
11053;BME280;55230;42.602;23.470;2023-06-05T11:00:28;93972.91;;;25.36;53.32
11053;BME280;55230;42.602;23.470;2023-06-05T11:02:55;93965.84;;;25.35;51.52
11053;BME280;55230;42.602;23.470;2023-06-05T11:05:21;93963.00;;;25.28;52.38
11053;BME280;55230;42.602;23.470;2023-06-05T11:07:49;93957.72;;;25.56;51.93
11053;BME280;55230;42.602;23.470;2023-06-05T11:10:34;93948.06;;;25.36;52.90
11053;BME280;55230;42.602;23.470;2023-06-05T11:13:01;93949.00;;;25.52;52.40
11053;BME280;55230;42.602;23.470;2023-06-05T11:15:37;93946.94;;;25.78;51.39
11053;BME280;55230;42.602;23.470;2023-06-05T11:20:49;93945.03;;;25.73;50.49
11053;BME280;55230;42.602;23.470;2023-06-05T11:23:15;93941.66;;;25.67;51.62
11053;BME280;55230;42.602;23.470;2023-06-05T11:25:42;93938.56;;;25.58;51.78
11053;BME280;55230;42.602;23.470;2023-06-05T11:28:09;93943.59;;;25.46;51.37
11053;BME280;55230;42.602;23.470;2023-06-05T11:30:39;93938.75;;;24.50;52.68
11053;BME280;55230;42.602;23.470;2023-06-05T11:33:08;93939.72;;;24.84;52.83
11053;BME280;55230;42.602;23.470;2023-06-05T11:35:35;93941.00;;;24.96;51.42
11053;BME280;55230;42.602;23.470;2023-06-05T11:38:08;93938.03;;;24.94;51.67
11053;BME280;55230;42.602;23.470;2023-06-05T11:40:34;93938.31;;;24.90;51.54
11053;BME280;55230;42.602;23.470;2023-06-05T11:43:01;93930.81;;;25.04;52.37
11053;BME280;55230;42.602;23.470;2023-06-05T11:45:29;93937.41;;;25.14;50.81
11053;BME280;55230;42.602;23.470;2023-06-05T11:48:04;93936.34;;;25.17;50.58
11053;BME280;55230;42.602;23.470;2023-06-05T11:50:31;93927.84;;;25.02;50.59
11053;BME280;55230;42.602;23.470;2023-06-05T11:53:03;93935.06;;;25.18;50.61
11053;BME280;55230;42.602;23.470;2023-06-05T11:55:31;93923.09;;;25.42;50.36
11053;BME280;55230;42.602;23.470;2023-06-05T11:58:08;93923.97;;;25.37;50.62
11053;BME280;55230;42.602;23.470;2023-06-05T12:00:34;93924.16;;;25.52;49.69
11053;BME280;55230;42.602;23.470;2023-06-05T12:03:01;93919.16;;;25.50;50.10
11053;BME280;55230;42.602;23.470;2023-06-05T12:05:29;93914.69;;;25.34;50.64
11053;BME280;55230;42.602;23.470;2023-06-05T12:07:55;93921.34;;;25.65;49.95
11053;BME280;55230;42.602;23.470;2023-06-05T12:10:33;93919.63;;;25.75;49.47
11053;BME280;55230;42.602;23.470;2023-06-05T12:13:00;93921.63;;;25.87;49.89
11053;BME280;55230;42.602;23.470;2023-06-05T12:15:26;93918.47;;;25.83;49.81
11053;BME280;55230;42.602;23.470;2023-06-05T12:17:54;93919.22;;;25.71;50.10
11053;BME280;55230;42.602;23.470;2023-06-05T12:20:20;93921.13;;;25.76;52.92
11053;BME280;55230;42.602;23.470;2023-06-05T12:22:49;93921.06;;;26.02;52.10
11053;BME280;55230;42.602;23.470;2023-06-05T12:25:15;93914.72;;;26.28;52.21
11053;BME280;55230;42.602;23.470;2023-06-05T12:27:42;93912.69;;;26.28;50.95
11053;BME280;55230;42.602;23.470;2023-06-05T12:30:09;93912.75;;;26.36;51.92
11053;BME280;55230;42.602;23.470;2023-06-05T12:32:36;93911.41;;;26.50;51.16
11053;BME280;55230;42.602;23.470;2023-06-05T12:35:04;93897.66;;;26.78;50.86
11053;BME280;55230;42.602;23.470;2023-06-05T12:37:33;93906.13;;;27.00;49.67
11053;BME280;55230;42.602;23.470;2023-06-05T12:40:04;93901.72;;;27.05;50.37
11053;BME280;55230;42.602;23.470;2023-06-05T12:42:34;93901.94;;;27.35;48.20
11053;BME280;55230;42.602;23.470;2023-06-05T12:45:01;93892.81;;;27.27;48.01
11053;BME280;55230;42.602;23.470;2023-06-05T12:47:28;93888.66;;;27.34;49.21
11053;BME280;55230;42.602;23.470;2023-06-05T12:49:54;93886.34;;;26.96;48.01
11053;BME280;55230;42.602;23.470;2023-06-05T12:52:21;93885.03;;;26.90;48.45
11053;BME280;55230;42.602;23.470;2023-06-05T12:54:50;93875.03;;;26.87;47.85
11053;BME280;55230;42.602;23.470;2023-06-05T12:57:18;93876.78;;;26.77;49.04